createdAt,value
2023-07-22T00:02:17.716Z,91.35
2023-07-22T00:04:44.693Z,91.05
2023-07-22T00:07:11.947Z,91.21
2023-07-22T00:09:39.853Z,91.30
2023-07-22T00:12:06.805Z,90.97
2023-07-22T00:14:33.409Z,90.78
2023-07-22T00:17:00.006Z,90.47
2023-07-22T00:19:26.599Z,91.07
2023-07-22T00:21:53.360Z,90.79
2023-07-22T00:24:19.966Z,91.09
2023-07-22T00:26:46.606Z,91.08
2023-07-22T00:29:13.245Z,90.97
2023-07-22T00:31:39.755Z,91.62
2023-07-22T00:34:06.400Z,91.56
2023-07-22T00:36:33.077Z,91.72
2023-07-22T00:38:59.802Z,91.18
2023-07-22T00:41:26.941Z,91.05
2023-07-22T00:43:53.725Z,91.04
2023-07-22T00:46:20.342Z,90.62
2023-07-22T00:48:48.661Z,90.53
2023-07-22T00:51:15.776Z,90.69
2023-07-22T00:53:42.441Z,90.48
2023-07-22T00:56:09.642Z,90.45
2023-07-22T00:58:36.545Z,90.86
2023-07-22T01:01:03.261Z,90.67
2023-07-22T01:03:29.988Z,90.97
2023-07-22T01:05:58.077Z,91.22
2023-07-22T01:08:24.538Z,91.12
2023-07-22T01:10:50.980Z,91.38
2023-07-22T01:13:17.597Z,91.09
2023-07-22T01:15:44.499Z,90.93
2023-07-22T01:18:11.287Z,91.48
2023-07-22T01:20:38.762Z,91.66
2023-07-22T01:23:05.647Z,90.97
2023-07-22T01:25:32.258Z,91.43
2023-07-22T01:27:58.834Z,90.79
2023-07-22T01:30:27.410Z,91.19
2023-07-22T01:32:54.433Z,91.55
2023-07-22T01:35:22.356Z,91.26
2023-07-22T01:37:48.992Z,91.37
2023-07-22T01:40:15.533Z,91.69
2023-07-22T01:42:43.275Z,91.26
2023-07-22T01:45:10.619Z,91.16
2023-07-22T01:47:37.915Z,90.95
2023-07-22T01:50:07.437Z,91.13
2023-07-22T01:52:34.175Z,91.25
2023-07-22T01:55:00.853Z,90.72
2023-07-22T01:57:27.403Z,90.72
2023-07-22T01:59:53.997Z,91.60
2023-07-22T02:02:21.236Z,91.58
2023-07-22T02:04:47.806Z,92.24
2023-07-22T02:07:14.873Z,91.62
2023-07-22T02:09:42.042Z,92.40
2023-07-22T02:12:09.419Z,91.88
2023-07-22T02:14:35.951Z,92.55
2023-07-22T02:17:02.537Z,92.59
2023-07-22T02:19:29.721Z,92.43
2023-07-22T02:21:56.332Z,92.24
2023-07-22T02:24:23.027Z,92.66
2023-07-22T02:26:49.660Z,92.56
2023-07-22T02:29:16.269Z,92.86
2023-07-22T02:31:42.873Z,93.15
2023-07-22T02:34:09.439Z,93.48
2023-07-22T02:36:35.975Z,93.23
2023-07-22T02:39:02.666Z,92.78
2023-07-22T02:41:29.128Z,93.06
2023-07-22T02:43:55.815Z,93.15
2023-07-22T02:46:23.007Z,93.18
2023-07-22T02:48:49.911Z,92.67
2023-07-22T02:51:16.548Z,93.25
2023-07-22T02:53:43.482Z,93.17
2023-07-22T02:56:12.084Z,93.37
2023-07-22T02:58:38.660Z,93.76
2023-07-22T03:01:06.364Z,94.26
2023-07-22T03:03:35.931Z,93.90
2023-07-22T03:06:04.364Z,94.30
2023-07-22T03:08:31.423Z,93.96
2023-07-22T03:10:57.963Z,93.37
2023-07-22T03:13:24.536Z,93.76
2023-07-22T03:15:51.495Z,94.33
2023-07-22T03:18:18.110Z,94.53
2023-07-22T03:20:44.780Z,95.19
2023-07-22T03:23:11.349Z,96.04
2023-07-22T03:25:37.904Z,95.79
2023-07-22T03:28:06.157Z,96.57
2023-07-22T03:30:33.037Z,96.90
2023-07-22T03:33:00.182Z,96.75
2023-07-22T03:35:27.015Z,97.41
2023-07-22T03:37:53.582Z,97.99
2023-07-22T03:40:27.787Z,97.70
2023-07-22T03:42:55.989Z,98.07
2023-07-22T03:45:23.429Z,97.64
2023-07-22T03:48:01.298Z,97.28
2023-07-22T03:50:29.050Z,97.81
2023-07-22T03:52:55.675Z,97.87
2023-07-22T03:55:22.236Z,97.62
2023-07-22T03:57:49.084Z,97.73
2023-07-22T04:00:15.948Z,97.87
2023-07-22T04:02:42.872Z,98.23
2023-07-22T04:05:11.052Z,98.52
2023-07-22T04:07:37.977Z,99.06
2023-07-22T04:10:04.917Z,99.35
2023-07-22T04:12:32.636Z,98.68
2023-07-22T04:14:59.257Z,99.18
2023-07-22T04:17:28.784Z,99.18
2023-07-22T04:19:55.450Z,99.00
2023-07-22T04:22:23.162Z,99.00
2023-07-22T04:24:50.213Z,99.02
2023-07-22T04:27:17.389Z,98.73
2023-07-22T04:29:44.203Z,99.52
2023-07-22T04:32:10.812Z,99.78
2023-07-22T04:34:37.365Z,99.63
2023-07-22T04:37:04.234Z,99.55
2023-07-22T04:39:30.773Z,99.79
2023-07-22T04:41:57.407Z,99.97
2023-07-22T04:44:25.029Z,100.00
2023-07-22T04:46:51.787Z,100.00
2023-07-22T04:49:19.196Z,100.00
2023-07-22T04:51:47.182Z,100.00
2023-07-22T04:54:14.295Z,100.00
2023-07-22T04:56:40.876Z,100.00
2023-07-22T04:59:07.819Z,100.00
2023-07-22T05:01:34.332Z,100.00
2023-07-22T05:04:01.169Z,100.00
2023-07-22T05:06:30.002Z,100.00
2023-07-22T05:08:56.777Z,100.00
2023-07-22T05:11:24.361Z,100.00
2023-07-22T05:13:51.890Z,100.00
2023-07-22T05:16:18.634Z,100.00
2023-07-22T05:18:45.212Z,100.00
2023-07-22T05:21:11.709Z,100.00
2023-07-22T05:23:38.238Z,100.00
2023-07-22T05:26:04.964Z,100.00
2023-07-22T05:28:31.639Z,100.00
2023-07-22T05:30:58.419Z,100.00
2023-07-22T05:33:25.197Z,100.00
2023-07-22T05:35:51.777Z,100.00
2023-07-22T05:38:18.457Z,100.00
2023-07-22T05:40:45.632Z,100.00
2023-07-22T05:43:12.349Z,100.00
2023-07-22T05:45:38.929Z,100.00
2023-07-22T05:48:05.950Z,100.00
2023-07-22T05:50:32.544Z,100.00
2023-07-22T05:52:59.114Z,100.00
2023-07-22T05:55:25.690Z,100.00
2023-07-22T05:57:52.260Z,100.00
2023-07-22T06:00:19.895Z,100.00
2023-07-22T06:02:46.553Z,100.00
2023-07-22T06:05:13.111Z,100.00
2023-07-22T06:07:39.861Z,100.00
2023-07-22T06:10:07.435Z,100.00
2023-07-22T06:12:34.126Z,100.00
2023-07-22T06:15:00.717Z,100.00
2023-07-22T06:17:27.814Z,100.00
2023-07-22T06:19:54.605Z,100.00
2023-07-22T06:22:21.110Z,100.00
2023-07-22T06:24:47.829Z,100.00
2023-07-22T06:27:14.372Z,99.92
2023-07-22T06:29:40.936Z,99.20
2023-07-22T06:32:07.995Z,98.88
2023-07-22T06:34:34.587Z,96.72
2023-07-22T06:37:01.148Z,94.99
2023-07-22T06:39:27.673Z,92.77
2023-07-22T06:41:54.344Z,91.15
2023-07-22T06:44:20.900Z,90.81
2023-07-22T06:46:47.494Z,89.56
2023-07-22T06:49:14.118Z,89.21
2023-07-22T06:51:40.650Z,90.10
2023-07-22T06:54:07.233Z,88.62
2023-07-22T06:56:33.831Z,89.25
2023-07-22T06:59:00.427Z,87.96
2023-07-22T07:01:27.076Z,87.47
2023-07-22T07:03:53.718Z,86.89
2023-07-22T07:06:20.499Z,86.49
2023-07-22T07:08:47.138Z,85.33
2023-07-22T07:11:13.699Z,84.94
2023-07-22T07:13:40.221Z,85.53
2023-07-22T07:16:28.224Z,84.81
2023-07-22T07:18:56.602Z,85.07
2023-07-22T07:21:23.626Z,85.50
2023-07-22T07:23:50.598Z,84.04
2023-07-22T07:26:17.173Z,82.81
2023-07-22T07:28:43.992Z,82.47
2023-07-22T07:31:11.039Z,82.08
2023-07-22T07:33:37.680Z,81.88
2023-07-22T07:36:05.066Z,82.25
2023-07-22T07:38:32.582Z,82.32
2023-07-22T07:41:05.049Z,81.52
2023-07-22T07:43:31.671Z,81.68
2023-07-22T07:46:23.379Z,80.63
2023-07-22T07:48:53.279Z,79.65
2023-07-22T07:51:22.137Z,79.53
2023-07-22T07:53:49.886Z,79.47
2023-07-22T07:56:18.399Z,77.95
2023-07-22T07:58:46.801Z,77.87
2023-07-22T08:01:13.694Z,77.29
2023-07-22T08:03:45.653Z,77.49
2023-07-22T08:06:13.307Z,76.19
2023-07-22T08:08:40.610Z,76.36
2023-07-22T08:11:14.476Z,75.95
2023-07-22T08:13:41.744Z,76.19
2023-07-22T08:16:09.938Z,74.94
2023-07-22T08:18:37.585Z,75.59
2023-07-22T08:21:05.659Z,74.41
2023-07-22T08:23:32.223Z,73.72
2023-07-22T08:25:58.835Z,72.56
2023-07-22T08:28:25.619Z,71.84
2023-07-22T08:30:55.819Z,71.63
2023-07-22T08:33:38.936Z,71.63
2023-07-22T08:36:08.510Z,68.57
2023-07-22T08:38:35.246Z,67.45
2023-07-22T08:41:01.944Z,68.58
2023-07-22T08:43:30.164Z,67.44
2023-07-22T08:46:01.456Z,67.24
2023-07-22T08:48:34.290Z,66.51
2023-07-22T08:51:06.347Z,65.88
2023-07-22T08:53:34.421Z,64.87
2023-07-22T08:56:03.397Z,64.87
2023-07-22T08:58:30.829Z,65.86
2023-07-22T09:00:57.930Z,65.46
2023-07-22T09:03:25.440Z,65.64
2023-07-22T09:05:52.956Z,65.99
2023-07-22T09:08:19.697Z,64.93
2023-07-22T09:10:47.195Z,65.05
2023-07-22T09:13:19.509Z,66.35
2023-07-22T09:15:48.937Z,65.48
2023-07-22T09:18:16.750Z,62.09
2023-07-22T09:20:43.680Z,62.29
2023-07-22T09:23:14.061Z,62.34
2023-07-22T09:25:42.723Z,62.48
2023-07-22T09:28:10.441Z,61.05
2023-07-22T09:30:42.227Z,62.53
2023-07-22T09:33:21.650Z,62.81
2023-07-22T09:35:50.297Z,61.85
2023-07-22T09:38:26.712Z,61.71
2023-07-22T09:40:54.334Z,61.01
2023-07-22T09:43:23.585Z,61.67
2023-07-22T09:45:50.155Z,60.37
2023-07-22T09:48:17.712Z,60.30
2023-07-22T09:50:44.706Z,61.14
2023-07-22T09:53:17.213Z,59.44
2023-07-22T09:55:44.978Z,60.78
2023-07-22T09:58:11.956Z,60.18
2023-07-22T10:00:40.186Z,60.97
2023-07-22T10:03:14.602Z,60.50
2023-07-22T10:05:44.014Z,60.89
2023-07-22T10:08:13.156Z,60.92
2023-07-22T10:10:40.145Z,60.54
2023-07-22T10:13:07.509Z,60.09
2023-07-22T10:15:35.777Z,59.50
2023-07-22T10:18:04.495Z,59.44
2023-07-22T10:20:31.833Z,59.64
2023-07-22T10:23:00.096Z,58.31
2023-07-22T10:25:26.620Z,58.58
2023-07-22T10:27:54.253Z,57.38
2023-07-22T10:30:21.154Z,58.60
2023-07-22T10:32:52.952Z,57.66
2023-07-22T10:35:35.124Z,58.60
2023-07-22T10:38:09.110Z,58.04
2023-07-22T10:40:48.593Z,57.64
2023-07-22T10:43:19.710Z,58.10
2023-07-22T10:45:54.777Z,58.09
2023-07-22T10:48:23.896Z,57.51
2023-07-22T10:50:55.194Z,57.89
2023-07-22T10:53:24.792Z,58.53
2023-07-22T10:56:10.236Z,58.26
2023-07-22T10:58:45.783Z,58.57
2023-07-22T11:01:27.736Z,59.06
2023-07-22T11:04:13.891Z,58.79
2023-07-22T11:06:49.285Z,58.81
2023-07-22T11:09:37.081Z,58.86
2023-07-22T11:12:05.116Z,58.76
2023-07-22T11:14:38.537Z,58.76
2023-07-22T11:17:06.899Z,58.83
2023-07-22T11:19:36.344Z,59.68
2023-07-22T11:22:04.156Z,58.69
2023-07-22T11:24:31.155Z,59.89
2023-07-22T11:26:57.792Z,59.11
2023-07-22T11:29:24.321Z,59.23
2023-07-22T11:31:52.650Z,58.88
2023-07-22T11:34:24.672Z,58.70
2023-07-22T11:36:52.624Z,58.34
2023-07-22T11:39:21.427Z,58.81
2023-07-22T11:41:49.164Z,58.36
2023-07-22T11:44:18.476Z,59.89
2023-07-22T11:47:05.906Z,58.85
2023-07-22T11:49:37.662Z,56.58
2023-07-22T11:52:06.585Z,57.05
2023-07-22T11:54:34.640Z,57.10
2023-07-22T11:57:30.510Z,57.93
2023-07-22T11:59:57.968Z,58.50
2023-07-22T12:02:27.106Z,58.95
2023-07-22T12:05:06.182Z,59.74
2023-07-22T12:07:37.615Z,59.96
2023-07-22T12:10:06.659Z,61.56
2023-07-22T12:12:37.116Z,61.04
2023-07-22T12:15:16.589Z,61.46
2023-07-22T12:17:51.387Z,62.31
2023-07-22T12:20:18.855Z,63.90
2023-07-22T12:22:45.838Z,64.27
2023-07-22T12:25:12.574Z,65.03
2023-07-22T12:27:39.264Z,66.01
2023-07-22T12:30:07.990Z,66.42
2023-07-22T12:32:34.914Z,66.04
2023-07-22T12:35:01.758Z,64.58
2023-07-22T12:37:29.378Z,64.16
2023-07-22T12:39:56.137Z,63.93
2023-07-22T12:42:22.797Z,64.02
2023-07-22T12:44:49.444Z,64.47
2023-07-22T12:47:16.079Z,64.68
2023-07-22T12:49:43.310Z,64.20
2023-07-22T12:52:10.457Z,65.45
2023-07-22T12:54:37.210Z,66.57
2023-07-22T12:57:04.045Z,68.15
2023-07-22T12:59:30.521Z,69.45
2023-07-22T13:01:59.052Z,71.38
2023-07-22T13:04:26.187Z,72.13
2023-07-22T13:06:52.889Z,72.88
2023-07-22T13:09:20.543Z,73.91
2023-07-22T13:11:47.508Z,73.00
2023-07-22T13:14:15.263Z,74.76
2023-07-22T13:16:41.813Z,75.06
2023-07-22T13:19:08.332Z,76.68
2023-07-22T13:21:34.861Z,77.10
2023-07-22T13:24:01.401Z,77.22
2023-07-22T13:26:27.971Z,77.98
2023-07-22T13:28:54.590Z,78.65
2023-07-22T13:31:21.247Z,77.22
2023-07-22T13:33:47.819Z,77.58
2023-07-22T13:36:14.354Z,76.93
2023-07-22T13:38:41.088Z,77.72
2023-07-22T13:41:07.608Z,77.50
2023-07-22T13:43:34.211Z,76.69
2023-07-22T13:46:00.771Z,76.12
2023-07-22T13:48:27.344Z,74.52
2023-07-22T13:50:53.962Z,74.39
2023-07-22T13:53:20.477Z,75.09
2023-07-22T13:55:50.203Z,74.17
2023-07-22T13:58:18.481Z,73.95
2023-07-22T14:00:45.080Z,73.88
2023-07-22T14:03:11.713Z,74.22
2023-07-22T14:05:38.296Z,73.70
2023-07-22T14:08:05.068Z,74.52
2023-07-22T14:10:31.689Z,74.15
2023-07-22T14:12:58.217Z,73.12
2023-07-22T14:15:24.769Z,73.14
2023-07-22T14:17:51.346Z,73.56
2023-07-22T14:20:17.905Z,73.13
2023-07-22T14:22:44.814Z,73.02
2023-07-22T14:25:11.508Z,72.86
2023-07-22T14:27:41.264Z,72.83
2023-07-22T14:30:09.035Z,72.85
2023-07-22T14:32:35.709Z,72.72
2023-07-22T14:35:02.412Z,72.63
2023-07-22T14:37:28.938Z,73.37
2023-07-22T14:39:55.489Z,71.77
2023-07-22T14:42:21.987Z,73.01
2023-07-22T14:44:48.678Z,71.97
2023-07-22T14:47:15.194Z,71.28
2023-07-22T14:49:41.720Z,70.62
2023-07-22T14:52:08.460Z,70.29
2023-07-22T14:54:35.109Z,71.46
2023-07-22T14:57:01.718Z,70.29
2023-07-22T14:59:28.180Z,70.05
2023-07-22T15:01:55.374Z,69.61
2023-07-22T15:04:21.971Z,69.99
2023-07-22T15:06:48.554Z,69.15
2023-07-22T15:09:15.125Z,68.96
2023-07-22T15:11:41.667Z,68.92
2023-07-22T15:14:08.335Z,68.96
2023-07-22T15:16:34.988Z,69.70
2023-07-22T15:19:01.707Z,69.16
2023-07-22T15:21:28.603Z,70.26
2023-07-22T15:23:55.618Z,69.34
2023-07-22T15:26:22.169Z,70.31
2023-07-22T15:28:49.479Z,71.27
2023-07-22T15:31:19.363Z,72.21
2023-07-22T15:33:46.033Z,73.69
2023-07-22T15:36:12.913Z,74.02
2023-07-22T15:38:39.464Z,73.90
2023-07-22T15:41:05.973Z,75.27
2023-07-22T15:43:32.547Z,73.13
2023-07-22T15:46:00.140Z,73.66
2023-07-22T15:48:26.730Z,74.51
2023-07-22T15:50:53.475Z,73.07
2023-07-22T15:53:20.367Z,74.46
2023-07-22T15:55:47.015Z,74.07
2023-07-22T15:58:13.545Z,73.16
2023-07-22T16:00:40.261Z,72.59
2023-07-22T16:03:07.215Z,72.08
2023-07-22T16:05:33.884Z,70.91
2023-07-22T16:08:01.313Z,71.46
2023-07-22T16:10:28.266Z,69.97
2023-07-22T16:12:54.841Z,71.43
2023-07-22T16:15:21.483Z,70.29
2023-07-22T16:17:48.095Z,71.66
2023-07-22T16:20:14.918Z,71.91
2023-07-22T16:22:41.695Z,71.63
2023-07-22T16:25:10.383Z,70.08
2023-07-22T16:27:36.950Z,69.99
2023-07-22T16:30:04.156Z,69.73
2023-07-22T16:32:30.942Z,70.33
2023-07-22T16:34:57.671Z,69.29
2023-07-22T16:37:24.746Z,67.59
2023-07-22T16:39:54.619Z,67.65
2023-07-22T16:42:21.437Z,68.73
2023-07-22T16:44:48.136Z,67.65
2023-07-22T16:47:14.782Z,68.45
2023-07-22T16:49:41.533Z,67.11
2023-07-22T16:52:08.449Z,68.37
2023-07-22T16:54:34.923Z,67.40
2023-07-22T16:57:01.460Z,67.77
2023-07-22T16:59:27.966Z,67.56
2023-07-22T17:01:54.603Z,68.30
2023-07-22T17:04:21.113Z,68.26
2023-07-22T17:06:47.648Z,67.76
2023-07-22T17:09:14.890Z,68.08
2023-07-22T17:11:42.331Z,68.51
2023-07-22T17:14:08.970Z,67.93
2023-07-22T17:16:35.510Z,68.34
2023-07-22T17:19:02.038Z,68.98
2023-07-22T17:21:28.952Z,69.22
2023-07-22T17:23:55.623Z,68.49
2023-07-22T17:26:22.229Z,68.43
2023-07-22T17:28:48.749Z,69.00
2023-07-22T17:31:15.342Z,70.04
2023-07-22T17:33:42.232Z,68.30
2023-07-22T17:36:08.812Z,68.82
2023-07-22T17:38:35.455Z,69.49
2023-07-22T17:41:01.994Z,69.69
2023-07-22T17:43:28.552Z,69.37
2023-07-22T17:45:55.108Z,70.23
2023-07-22T17:48:22.464Z,70.40
2023-07-22T17:50:49.349Z,70.45
2023-07-22T17:53:16.022Z,71.81
2023-07-22T17:55:42.541Z,73.54
2023-07-22T17:58:09.104Z,74.58
2023-07-22T18:00:35.666Z,75.75
2023-07-22T18:03:02.226Z,76.63
2023-07-22T18:05:30.282Z,78.27
2023-07-22T18:07:56.992Z,78.67
2023-07-22T18:10:23.571Z,79.72
2023-07-22T18:12:50.033Z,80.06
2023-07-22T18:15:17.070Z,80.82
2023-07-22T18:17:43.601Z,81.49
2023-07-22T18:20:10.647Z,82.18
2023-07-22T18:22:37.272Z,82.50
2023-07-22T18:25:04.959Z,83.30
2023-07-22T18:27:31.532Z,83.59
2023-07-22T18:30:00.394Z,84.08
2023-07-22T18:32:30.862Z,84.72
2023-07-22T18:35:00.774Z,85.78
2023-07-22T18:37:28.128Z,85.87
2023-07-22T18:39:55.728Z,86.35
2023-07-22T18:42:22.424Z,87.85
2023-07-22T18:44:49.066Z,88.34
2023-07-22T18:47:17.326Z,88.45
2023-07-22T18:49:44.061Z,89.13
2023-07-22T18:52:10.579Z,89.89
2023-07-22T18:54:37.134Z,90.51
2023-07-22T18:57:03.838Z,91.20
2023-07-22T18:59:30.355Z,91.44
2023-07-22T19:01:56.886Z,91.64
2023-07-22T19:04:23.451Z,92.44
2023-07-22T19:06:52.616Z,92.83
2023-07-22T19:09:19.389Z,94.73
2023-07-22T19:11:45.993Z,95.52
2023-07-22T19:14:12.640Z,95.97
2023-07-22T19:16:39.263Z,96.65
2023-07-22T19:19:06.963Z,96.60
2023-07-22T19:21:33.601Z,97.46
2023-07-22T19:24:00.086Z,97.59
2023-07-22T19:26:26.629Z,98.30
2023-07-22T19:28:53.255Z,98.32
2023-07-22T19:31:19.873Z,99.01
2023-07-22T19:33:46.487Z,99.29
2023-07-22T19:36:13.075Z,99.11
2023-07-22T19:38:39.645Z,99.22
2023-07-22T19:41:13.995Z,99.09
2023-07-22T19:43:42.305Z,99.74
2023-07-22T19:46:12.796Z,99.84
2023-07-22T19:48:40.250Z,99.15
2023-07-22T19:51:09.105Z,99.44
2023-07-22T19:53:35.715Z,99.33
2023-07-22T19:56:06.230Z,99.28
2023-07-22T19:58:34.958Z,99.60
2023-07-22T20:01:04.029Z,100.00
2023-07-22T20:03:31.724Z,99.67
2023-07-22T20:05:58.697Z,99.70
2023-07-22T20:08:25.232Z,99.61
2023-07-22T20:10:52.792Z,99.81
2023-07-22T20:13:19.533Z,100.00
2023-07-22T20:15:46.687Z,100.00
2023-07-22T20:18:13.185Z,100.00
2023-07-22T20:20:39.721Z,100.00
2023-07-22T20:23:07.513Z,100.00
2023-07-22T20:25:34.368Z,100.00
2023-07-22T20:28:00.837Z,100.00
2023-07-22T20:30:28.081Z,100.00
2023-07-22T20:32:55.115Z,100.00
2023-07-22T20:35:22.304Z,100.00
2023-07-22T20:37:48.947Z,100.00
2023-07-22T20:40:15.621Z,100.00
2023-07-22T20:42:43.718Z,100.00
2023-07-22T20:45:10.636Z,100.00
2023-07-22T20:47:37.454Z,100.00
2023-07-22T20:50:04.670Z,100.00
2023-07-22T20:52:31.313Z,100.00
2023-07-22T20:54:58.008Z,100.00
2023-07-22T20:57:24.431Z,100.00
2023-07-22T20:59:55.450Z,100.00
2023-07-22T21:02:22.141Z,100.00
2023-07-22T21:04:48.813Z,100.00
2023-07-22T21:07:15.438Z,100.00
2023-07-22T21:09:42.133Z,100.00
2023-07-22T21:12:08.866Z,100.00
2023-07-22T21:14:35.408Z,100.00
2023-07-22T21:17:02.061Z,100.00
2023-07-22T21:19:28.653Z,100.00
2023-07-22T21:21:55.212Z,100.00
2023-07-22T21:24:22.946Z,100.00
2023-07-22T21:26:50.188Z,100.00
2023-07-22T21:29:16.897Z,100.00
2023-07-22T21:31:43.499Z,100.00
2023-07-22T21:34:15.594Z,100.00
2023-07-22T21:36:42.588Z,100.00
2023-07-22T21:39:09.198Z,100.00
2023-07-22T21:41:35.768Z,100.00
2023-07-22T21:44:02.293Z,100.00
2023-07-22T21:46:28.836Z,100.00
2023-07-22T21:48:55.424Z,100.00
2023-07-22T21:51:21.918Z,100.00
2023-07-22T21:53:50.224Z,100.00
2023-07-22T21:56:17.098Z,100.00
2023-07-22T21:58:43.661Z,100.00
2023-07-22T22:01:10.237Z,100.00
2023-07-22T22:03:36.846Z,100.00
2023-07-22T22:06:03.466Z,100.00
2023-07-22T22:08:29.963Z,100.00
2023-07-22T22:10:56.538Z,100.00
2023-07-22T22:13:25.702Z,100.00
2023-07-22T22:15:52.686Z,100.00
2023-07-22T22:18:19.360Z,100.00
2023-07-22T22:20:45.911Z,100.00
2023-07-22T22:23:14.139Z,100.00
2023-07-22T22:25:40.799Z,100.00
2023-07-22T22:28:07.381Z,100.00
2023-07-22T22:30:33.903Z,100.00
2023-07-22T22:33:00.540Z,100.00
2023-07-22T22:35:27.075Z,100.00
2023-07-22T22:37:53.634Z,100.00
2023-07-22T22:40:20.213Z,100.00
2023-07-22T22:42:46.796Z,100.00
2023-07-22T22:45:13.720Z,100.00
2023-07-22T22:47:40.341Z,100.00
2023-07-22T22:50:07.424Z,100.00
2023-07-22T22:52:35.653Z,100.00
2023-07-22T22:55:02.906Z,100.00
2023-07-22T22:57:29.389Z,100.00
2023-07-22T22:59:55.927Z,100.00
2023-07-22T23:02:22.516Z,100.00
2023-07-22T23:04:49.036Z,100.00
2023-07-22T23:07:15.571Z,100.00
2023-07-22T23:09:42.224Z,100.00
2023-07-22T23:12:09.097Z,100.00
2023-07-22T23:14:37.842Z,100.00
2023-07-22T23:17:04.460Z,100.00
2023-07-22T23:19:31.063Z,100.00
2023-07-22T23:21:57.684Z,100.00
2023-07-22T23:24:24.278Z,100.00
2023-07-22T23:26:50.825Z,100.00
2023-07-22T23:29:17.414Z,100.00
2023-07-22T23:31:44.000Z,100.00
2023-07-22T23:34:10.645Z,100.00
2023-07-22T23:36:37.543Z,100.00
2023-07-22T23:39:05.518Z,100.00
2023-07-22T23:41:32.028Z,100.00
2023-07-22T23:43:58.625Z,100.00
2023-07-22T23:46:25.176Z,100.00
2023-07-22T23:48:51.848Z,100.00
2023-07-22T23:51:20.479Z,100.00
2023-07-22T23:53:48.886Z,100.00
2023-07-22T23:56:15.486Z,100.00
2023-07-22T23:58:42.255Z,100.00
